Time;durP1;ratioP1;P1;durP2;ratioP2;P2;SDS_P1;SDS_P2;PMS_P1;PMS_P2;Temp;Humidity;BMP_temperature;BMP_pressure;BME280_temperature;BME280_humidity;BME280_pressure;Samples;Min_cycle;Max_cycle;Signal;HPM_P1;HPM_P2
2022/06/13 00:04:40;;;;;;;11.98;4.72;;;;;;;12.90;100.00;101910.88;10286745;28;20483;-87
2022/06/13 00:09:40;;;;;;;15.23;4.93;;;;;;;12.84;100.00;101904.41;10293914;28;20058;-88
2022/06/13 00:14:41;;;;;;;16.27;5.40;;;;;;;12.78;100.00;101905.38;10293565;28;20071;-88
2022/06/13 00:19:41;;;;;;;12.43;5.22;;;;;;;12.66;100.00;101902.63;10290400;28;20042;-89
2022/06/13 00:24:42;;;;;;;15.88;4.85;;;;;;;12.55;100.00;101891.59;10255717;28;20032;-88
2022/06/13 00:29:44;;;;;;;13.48;5.28;;;;;;;12.46;100.00;101877.31;10254221;28;20035;-88
2022/06/13 00:34:46;;;;;;;13.10;5.15;;;;;;;12.27;100.00;101884.91;10255624;28;20040;-89
2022/06/13 00:39:46;;;;;;;13.40;6.38;;;;;;;12.16;100.00;101880.25;10277705;28;20050;-88
2022/06/13 00:45:32;;;;;;;17.15;5.50;;;;;;;12.06;100.00;101872.56;10265823;28;20042;-89
2022/06/13 00:50:35;;;;;;;18.70;6.70;;;;;;;11.95;100.00;101867.84;10269547;28;20461;-88
2022/06/13 00:55:38;;;;;;;12.77;5.50;;;;;;;11.92;100.00;101871.94;10287771;28;20039;-89
2022/06/13 01:00:43;;;;;;;19.25;6.57;;;;;;;11.25;100.00;101761.88;10260731;28;20038;-89
2022/06/13 01:05:45;;;;;;;15.77;5.78;;;;;;;11.98;100.00;101868.22;10261342;28;20098;-88
2022/06/13 01:16:25;;;;;;;19.15;7.80;;;;;;;12.05;100.00;101873.63;10280403;28;20046;-88
2022/06/13 01:21:42;;;;;;;17.05;7.38;;;;;;;12.06;100.00;101862.34;10297098;28;20054;-88
2022/06/13 01:26:52;;;;;;;15.98;6.30;;;;;;;12.08;100.00;101867.63;10301479;28;20034;-88
2022/06/13 01:32:16;;;;;;;18.95;7.38;;;;;;;12.05;100.00;101877.25;10299453;28;20051;-88
2022/06/13 01:37:26;;;;;;;14.20;5.93;;;;;;;12.06;100.00;101867.03;10300282;28;20050;-88
2022/06/13 01:42:57;;;;;;;16.88;6.32;;;;;;;12.05;100.00;101865.34;10301232;28;20090;-88
2022/06/13 01:48:19;;;;;;;15.98;6.50;;;;;;;11.96;100.00;101866.78;10298418;28;20049;-88
2022/06/13 01:53:22;;;;;;;15.02;6.30;;;;;;;11.87;100.00;101847.78;10304896;28;20073;-88
2022/06/13 01:58:36;;;;;;;23.02;6.70;;;;;;;11.83;100.00;101834.72;10283209;28;20106;-88
2022/06/13 02:03:45;;;;;;;19.65;6.28;;;;;;;11.83;100.00;101830.03;10298985;28;20143;-88
2022/06/13 02:08:53;;;;;;;16.45;6.75;;;;;;;11.81;100.00;101834.13;10279608;28;21614;-87
2022/06/13 02:13:57;;;;;;;20.73;6.65;;;;;;;11.83;100.00;101840.25;10298591;28;20049;-89
2022/06/13 02:19:03;;;;;;;15.85;6.97;;;;;;;11.90;100.00;101838.22;10282507;28;20122;-88
2022/06/13 02:24:06;;;;;;;16.53;7.03;;;;;;;12.03;100.00;101845.41;10282312;28;20066;-89
2022/06/13 02:29:19;;;;;;;16.27;6.10;;;;;;;12.10;100.00;101835.94;10281668;28;20043;-89
2022/06/13 02:34:31;;;;;;;14.90;6.03;;;;;;;12.12;100.00;101838.47;10266325;28;20066;-89
2022/06/13 02:39:43;;;;;;;17.40;6.78;;;;;;;12.23;100.00;101851.41;10297013;28;20035;-88
2022/06/13 02:45:03;;;;;;;16.55;6.28;;;;;;;12.21;100.00;101837.00;10281326;28;20077;-89
2022/06/13 02:50:05;;;;;;;20.35;6.95;;;;;;;12.19;100.00;101828.13;10280842;28;20407;-88
2022/06/13 02:55:07;;;;;;;16.70;6.95;;;;;;;12.26;100.00;101834.38;10296555;28;20086;-88
2022/06/13 03:00:38;;;;;;;18.60;8.43;;;;;;;12.38;100.00;101839.03;10280928;28;20043;-89
2022/06/13 03:05:51;;;;;;;19.38;8.18;;;;;;;12.43;100.00;101839.16;10296493;28;20050;-88
2022/06/13 03:11:16;;;;;;;16.40;8.27;;;;;;;12.43;100.00;101839.16;10280293;28;20495;-88
2022/06/13 03:16:23;;;;;;;22.95;9.25;;;;;;;12.49;100.00;101836.25;10296252;28;20065;-88
2022/06/13 03:21:28;;;;;;;23.38;8.82;;;;;;;12.49;100.00;101840.94;10296293;28;20103;-89
2022/06/13 03:26:32;;;;;;;19.50;7.30;;;;;;;12.47;100.00;101838.41;10283570;28;20035;-89
2022/06/13 03:31:38;;;;;;;23.13;8.73;;;;;;;12.50;100.00;101835.16;10295797;28;20046;-88
2022/06/13 03:36:47;;;;;;;26.20;8.30;;;;;;;12.51;100.00;101828.56;10280426;28;20035;-88
2022/06/13 03:42:07;;;;;;;20.58;7.50;;;;;;;12.48;100.00;101842.00;10281438;28;20667;-89
2022/06/13 03:47:31;;;;;;;17.88;7.30;;;;;;;12.47;100.00;101843.94;10283595;28;20035;-89
2022/06/13 03:52:32;;;;;;;23.38;9.35;;;;;;;12.41;100.00;101831.09;10265876;28;20055;-85
2022/06/13 03:57:39;;;;;;;19.92;7.88;;;;;;;12.49;100.00;101852.81;10298234;28;20120;-78
2022/06/13 04:02:40;;;;;;;13.80;7.18;;;;;;;12.49;100.00;101843.69;10300884;28;20043;-88
2022/06/13 04:07:41;;;;;;;18.65;7.70;;;;;;;12.47;100.00;101843.09;10285627;28;20034;-88
2022/06/13 04:12:51;;;;;;;19.42;7.20;;;;;;;12.52;100.00;101845.97;10267031;28;20039;-88
2022/06/13 04:18:06;;;;;;;20.75;6.85;;;;;;;12.63;100.00;101853.41;10299246;28;20390;-88
2022/06/13 04:23:21;;;;;;;22.30;7.47;;;;;;;12.60;100.00;101839.22;10298294;28;20078;-88
2022/06/13 04:28:28;;;;;;;14.05;6.53;;;;;;;12.76;100.00;101854.19;10242198;28;20046;-88
2022/06/13 04:33:34;;;;;;;19.50;7.80;;;;;;;12.81;100.00;101851.53;10258316;28;20094;-88
2022/06/13 04:38:34;;;;;;;22.73;7.68;;;;;;;12.81;100.00;101844.06;10258926;28;20053;-89
2022/06/13 04:43:43;;;;;;;15.13;6.18;;;;;;;12.79;100.00;101842.66;10258350;28;20055;-88
2022/06/13 04:48:44;;;;;;;16.33;6.13;;;;;;;12.75;100.00;101842.28;10247569;28;20185;-89
2022/06/13 04:54:05;;;;;;;19.05;7.75;;;;;;;12.74;100.00;101839.78;10282179;28;20047;-87
2022/06/13 04:59:05;;;;;;;15.55;6.00;;;;;;;12.75;100.00;101841.47;10305984;28;20050;-88
2022/06/13 05:04:07;;;;;;;16.08;5.68;;;;;;;12.79;100.00;101851.75;10288778;28;20035;-88
2022/06/13 05:09:10;;;;;;;17.92;5.47;;;;;;;12.92;100.00;101858.97;10288949;28;20039;-88
2022/06/13 05:14:14;;;;;;;13.88;4.90;;;;;;;13.04;100.00;101856.13;10307205;28;20418;-88
2022/06/13 05:19:25;;;;;;;15.50;5.68;;;;;;;13.22;100.00;101879.97;10296296;28;20062;-89
2022/06/13 05:24:26;;;;;;;10.95;3.45;;;;;;;13.43;100.00;101876.53;10302764;28;20043;-88
2022/06/13 05:29:28;;;;;;;7.90;3.78;;;;;;;13.63;100.00;101864.16;10302014;28;20050;-88
2022/06/13 05:34:31;;;;;;;12.13;3.20;;;;;;;13.93;100.00;101874.88;10300328;28;20487;-87
2022/06/13 05:39:31;;;;;;;6.68;2.30;;;;;;;14.15;100.00;101866.63;10267321;28;20035;-89
2022/06/13 05:44:32;;;;;;;8.10;2.70;;;;;;;14.41;100.00;101881.69;10245107;28;20055;-91
2022/06/13 05:49:32;;;;;;;7.00;2.05;;;;;;;14.49;100.00;101884.03;10230338;28;20039;-88
2022/06/13 05:54:33;;;;;;;8.82;2.25;;;;;;;14.48;100.00;101873.19;10288923;28;20042;-88
2022/06/13 05:59:33;;;;;;;8.93;2.00;;;;;;;14.57;100.00;101890.25;10297308;28;20042;-87
2022/06/13 06:04:34;;;;;;;7.53;1.77;;;;;;;14.46;100.00;101887.28;10288989;28;20062;-89
2022/06/13 06:09:34;;;;;;;8.35;1.88;;;;;;;14.42;100.00;101899.16;10277519;28;20048;-88
2022/06/13 06:14:35;;;;;;;7.53;2.72;;;;;;;14.41;100.00;101900.25;10266588;28;20043;-87
2022/06/13 06:19:35;;;;;;;8.40;1.80;;;;;;;14.63;100.00;101898.38;10261615;28;20123;-86
2022/06/13 06:24:35;;;;;;;6.88;1.85;;;;;;;15.11;100.00;101912.53;10260172;28;20053;-87
2022/06/13 06:29:36;;;;;;;6.88;1.50;;;;;;;15.45;100.00;101899.31;10273216;28;20046;-87
2022/06/13 06:34:36;;;;;;;8.60;1.65;;;;;;;15.43;100.00;101904.31;10277284;28;20050;-87
2022/06/13 06:39:37;;;;;;;5.32;1.23;;;;;;;15.42;100.00;101910.97;10267401;28;20106;-88
2022/06/13 06:44:37;;;;;;;4.35;1.05;;;;;;;15.38;100.00;101904.25;10276079;28;20042;-89
2022/06/13 06:49:38;;;;;;;6.13;1.30;;;;;;;15.44;100.00;101916.22;10295054;28;20030;-88
2022/06/13 06:59:57;;;;;;;5.35;1.05;;;;;;;16.02;100.00;101919.28;10294887;28;20117;-87
2022/06/13 07:05:04;;;;;;;4.63;0.85;;;;;;;15.88;100.00;101905.88;10278607;28;20559;-87
2022/06/13 07:10:05;;;;;;;7.20;1.25;;;;;;;15.45;100.00;101938.19;10262901;28;20103;-86
2022/06/13 07:15:06;;;;;;;6.38;2.22;;;;;;;14.40;100.00;101973.38;10274646;28;20057;-93
2022/06/13 07:20:07;;;;;;;9.98;1.77;;;;;;;13.41;100.00;101922.13;10289367;28;20129;-91
2022/06/13 07:25:09;;;;;;;8.38;1.73;;;;;;;13.45;100.00;101968.41;10271799;28;20035;-90
2022/06/13 07:30:12;;;;;;;3.88;1.20;;;;;;;13.55;100.00;101966.94;10245596;28;20042;-92
2022/06/13 07:35:15;;;;;;;3.72;1.00;;;;;;;13.99;100.00;101947.78;10301895;28;20409;-85
2022/06/13 07:40:15;;;;;;;5.28;1.10;;;;;;;14.37;100.00;101911.00;10294071;28;20045;-91
2022/06/13 07:45:18;;;;;;;6.60;1.25;;;;;;;15.23;100.00;101952.06;10261384;28;20041;-91
2022/06/13 07:50:21;;;;;;;3.47;1.13;;;;;;;14.88;100.00;101949.69;10263413;28;20045;-92
2022/06/13 07:55:22;;;;;;;2.70;0.80;;;;;;;14.30;100.00;101962.97;10252582;28;19919;-92
2022/06/13 08:00:25;;;;;;;5.18;0.93;;;;;;;13.81;100.00;101971.00;10283760;28;20094;-91
2022/06/13 08:05:25;;;;;;;5.22;1.00;;;;;;;13.46;100.00;101986.69;10274950;28;20039;-91
2022/06/13 08:10:26;;;;;;;5.25;1.60;;;;;;;13.47;100.00;101982.81;10251834;28;20043;-91
2022/06/13 08:15:26;;;;;;;7.50;2.05;;;;;;;13.99;100.00;101975.47;10259669;28;20482;-90
2022/06/13 08:20:27;;;;;;;4.07;1.60;;;;;;;14.53;100.00;101989.63;10276106;28;20082;-91
2022/06/13 08:25:32;;;;;;;8.65;1.73;;;;;;;14.24;100.00;101998.06;10261098;28;20043;-88
2022/06/13 08:30:43;;;;;;;9.77;2.10;;;;;;;14.12;100.00;101994.53;10296156;28;20042;-89
2022/06/13 08:35:43;;;;;;;6.57;1.80;;;;;;;13.88;100.00;101994.66;10263058;28;20039;-89
2022/06/13 08:41:14;;;;;;;8.50;1.80;;;;;;;14.09;100.00;102000.56;10257638;28;20051;-90
2022/06/13 08:46:27;;;;;;;5.82;1.95;;;;;;;14.35;100.00;102020.41;10298097;28;20047;-89
2022/06/13 08:51:40;;;;;;;7.40;1.90;;;;;;;14.39;100.00;102007.72;10297915;28;20507;-90
2022/06/13 08:56:40;;;;;;;4.65;1.33;;;;;;;14.62;100.00;101990.94;10280435;28;20038;-89
2022/06/13 09:01:41;;;;;;;6.57;1.95;;;;;;;15.24;100.00;102014.78;10264263;28;20046;-89
2022/06/13 09:06:52;;;;;;;6.25;1.40;;;;;;;15.14;100.00;102011.88;10296268;28;20030;-89
2022/06/13 09:12:03;;;;;;;4.45;0.90;;;;;;;15.40;100.00;101999.19;10295546;28;20509;-89
2022/06/13 09:17:21;;;;;;;4.75;1.20;;;;;;;15.04;100.00;102018.13;10295320;28;20042;-89
2022/06/13 09:22:27;;;;;;;4.55;0.90;;;;;;;15.93;100.00;102011.44;10284005;28;20050;-89
2022/06/13 09:27:34;;;;;;;9.80;1.02;;;;;;;16.06;100.00;101995.44;10279040;28;20045;-89
2022/06/13 09:32:41;;;;;;;9.43;1.60;;;;;;;15.63;100.00;102022.22;10238064;28;1249583;-89
2022/06/13 09:37:52;;;;;;;5.15;0.80;;;;;;;15.10;100.00;102030.13;10296932;28;20049;-87
2022/06/13 09:42:55;;;;;;;4.68;0.82;;;;;;;16.22;100.00;102022.25;10297793;28;20180;-90
2022/06/13 09:48:07;;;;;;;3.60;0.60;;;;;;;16.76;100.00;102021.28;10299417;28;20039;-90
2022/06/13 09:53:13;;;;;;;4.15;0.77;;;;;;;16.08;100.00;102021.88;10301634;28;20047;-92
2022/06/13 09:58:19;;;;;;;1.50;0.57;;;;;;;15.58;100.00;102022.13;10300623;28;20047;-93
2022/06/13 10:03:30;;;;;;;6.57;0.75;;;;;;;16.22;100.00;102027.81;10300201;28;20043;-94
2022/06/13 10:08:34;;;;;;;7.30;0.85;;;;;;;16.70;100.00;102039.88;10298424;28;20125;-93
2022/06/13 10:13:51;;;;;;;2.42;0.73;;;;;;;16.59;100.00;102003.94;10297259;28;20043;-92
2022/06/13 10:19:13;;;;;;;6.10;0.82;;;;;;;17.27;97.71;102015.19;10267887;28;20043;-90
2022/06/13 10:24:20;;;;;;;5.50;0.70;;;;;;;17.57;95.07;102020.03;10299632;28;20061;-95
2022/06/13 10:29:28;;;;;;;;;;;;;;;17.76;97.28;102028.72;10300490;28;20041;-91
2022/06/13 10:34:53;;;;;;;8.18;1.08;;;;;;;17.17;96.28;102042.97;10297843;28;19922;-91
2022/06/13 10:39:56;;;;;;;5.18;0.80;;;;;;;17.88;94.81;102020.97;10297160;28;20058;-92
2022/06/13 10:44:56;;;;;;;5.85;1.30;;;;;;;17.85;92.74;102043.81;10264243;28;20035;-91
2022/06/13 10:50:02;;;;;;;5.88;0.90;;;;;;;17.12;95.78;102022.34;10251560;28;20399;-92
2022/06/13 10:55:08;;;;;;;7.47;1.58;;;;;;;16.60;98.34;102056.50;10258329;28;20039;-91
2022/06/13 11:00:19;;;;;;;5.63;1.77;;;;;;;17.45;95.36;102056.47;10255639;28;20407;-91
2022/06/13 11:05:20;;;;;;;4.38;0.90;;;;;;;16.92;89.97;102052.84;10254941;28;20043;-90
2022/06/13 11:10:28;;;;;;;7.82;1.50;;;;;;;16.47;96.95;102060.53;10254353;28;20040;-91
2022/06/13 11:31:34;;;;;;;9.23;1.40;;;;;;;18.61;84.66;102044.97;10298767;28;20046;-88
2022/06/13 11:36:35;;;;;;;8.60;1.52;;;;;;;17.99;85.95;102062.81;10277110;28;20035;-93
2022/06/13 11:41:42;;;;;;;5.60;1.25;;;;;;;18.67;86.49;102059.78;10292468;28;20053;-87
2022/06/13 11:46:52;;;;;;;11.77;1.65;;;;;;;18.20;87.71;102078.44;10293008;28;20035;-85
2022/06/13 11:52:06;;;;;;;6.78;1.55;;;;;;;18.55;86.29;102074.00;10292927;28;20046;-88
2022/06/13 11:57:31;;;;;;;8.35;1.50;;;;;;;18.78;86.14;102068.97;10276890;28;20062;-88
2022/06/13 12:02:40;;;;;;;8.98;1.50;;;;;;;19.25;85.85;102076.16;10284113;28;20043;-86
2022/06/13 12:07:53;;;;;;;8.02;1.48;;;;;;;18.43;85.96;102087.38;10294397;28;20038;-92
2022/06/13 12:12:53;;;;;;;8.73;1.30;;;;;;;17.60;87.68;102052.06;10264080;28;20058;-92
2022/06/13 12:18:04;;;;;;;4.80;1.20;;;;;;;19.09;87.42;102078.97;10266958;28;20043;-92
2022/06/13 12:23:09;;;;;;;9.73;1.42;;;;;;;19.38;77.55;102064.38;10277630;28;20035;-91
2022/06/13 12:28:14;;;;;;;8.07;1.35;;;;;;;18.82;80.74;102051.41;10278232;28;20046;-90
2022/06/13 12:33:53;;;;;;;6.10;1.23;;;;;;;18.75;80.77;102095.47;10284524;28;20106;-89
2022/06/13 12:39:36;;;;;;;4.50;0.90;;;;;;;19.82;76.33;102066.41;10292458;28;20047;-92
2022/06/13 12:45:02;;;;;;;6.45;0.85;;;;;;;19.58;75.41;102068.22;10301418;28;20073;-89
2022/06/13 12:50:52;;;;;;;3.72;0.68;;;;;;;21.07;71.56;102059.56;10287505;28;20506;-90
2022/06/13 12:56:11;;;;;;;5.00;0.93;;;;;;;20.50;72.27;102076.03;10215077;28;20308;-90
2022/06/13 13:01:14;;;;;;;3.30;0.80;;;;;;;19.50;71.18;102075.22;10254379;28;20039;-89
2022/06/13 13:06:19;;;;;;;5.65;0.95;;;;;;;18.87;73.90;102096.06;10251992;28;20414;-90
2022/06/13 13:11:23;;;;;;;6.53;1.50;;;;;;;19.66;75.51;102109.53;10275835;28;20042;-91
2022/06/13 13:16:34;;;;;;;4.90;1.00;;;;;;;19.70;74.99;102116.19;10292059;28;20050;-91
2022/06/13 13:21:41;;;;;;;5.88;0.80;;;;;;;20.94;70.25;102077.91;10283089;28;20106;-92
2022/06/13 13:27:11;;;;;;;7.93;0.77;;;;;;;20.70;70.19;102095.47;10284318;28;20462;-90
2022/06/13 13:32:47;;;;;;;3.38;0.70;;;;;;;20.73;68.94;102092.09;10301265;28;20042;-91
2022/06/13 13:37:54;;;;;;;4.63;0.88;;;;;;;19.63;72.00;102115.66;10297651;28;20047;-91
2022/06/13 13:42:58;;;;;;;6.90;1.15;;;;;;;20.16;71.57;102110.41;10280257;28;20453;-92
2022/06/13 13:48:13;;;;;;;3.75;0.75;;;;;;;21.01;65.51;102097.16;10299570;28;20404;-90
2022/06/13 13:53:16;;;;;;;7.22;1.15;;;;;;;20.69;67.39;102110.59;10298665;28;20065;-91
2022/06/13 13:58:29;;;;;;;4.93;1.00;;;;;;;20.05;69.21;102117.16;10265717;28;20255;-90
2022/06/13 14:03:48;;;;;;;4.35;1.02;;;;;;;19.71;72.93;102146.66;10281486;28;20549;-91
2022/06/13 14:08:48;;;;;;;4.60;0.80;;;;;;;20.38;67.60;102106.31;10299758;28;20047;-91
2022/06/13 14:13:49;;;;;;;3.83;0.80;;;;;;;21.62;69.47;102127.31;10281876;28;20054;-91
2022/06/13 14:19:01;;;;;;;6.70;1.73;;;;;;;20.55;69.03;102120.75;10279947;28;20065;-92
2022/06/13 14:24:15;;;;;;;5.68;1.00;;;;;;;19.52;74.01;102146.44;10251648;28;20489;-90
2022/06/13 14:29:25;;;;;;;5.65;0.80;;;;;;;21.11;72.24;102134.28;10277992;28;20037;-89
2022/06/13 14:40:08;;;;;;;7.90;2.03;;;;;;;21.04;68.24;102107.75;10274951;28;20043;-92
2022/06/13 14:45:14;;;;;;;6.38;0.90;;;;;;;21.17;66.16;102099.50;10258227;28;20047;-91
2022/06/13 14:50:42;;;;;;;5.32;1.15;;;;;;;20.91;66.42;102112.91;10255440;28;20046;-92
2022/06/13 14:55:42;;;;;;;5.60;0.77;;;;;;;20.11;68.12;102141.16;10271866;28;20471;-92
2022/06/13 15:00:46;;;;;;;5.22;1.00;;;;;;;20.11;66.74;102132.78;10257661;28;20046;-90
2022/06/13 15:05:52;;;;;;;5.95;0.85;;;;;;;21.33;65.70;102118.91;10279438;28;20514;-90
2022/06/13 15:10:55;;;;;;;3.90;1.05;;;;;;;20.00;65.80;102136.78;10295552;28;20337;-91
2022/06/13 15:15:58;;;;;;;5.72;0.98;;;;;;;19.24;68.56;102144.25;10277803;28;20043;-92
2022/06/13 15:20:58;;;;;;;4.93;1.45;;;;;;;18.84;70.04;102140.41;10261223;28;20039;-91
2022/06/13 15:25:59;;;;;;;4.63;1.00;;;;;;;18.95;69.28;102111.38;10267217;28;20039;-91
2022/06/13 15:31:10;;;;;;;3.83;0.80;;;;;;;20.51;66.54;102083.31;10273313;28;20047;-91
2022/06/13 15:36:12;;;;;;;4.20;0.65;;;;;;;20.77;63.21;102117.50;10271241;28;20066;-89
2022/06/13 15:41:34;;;;;;;3.13;0.80;;;;;;;19.95;67.55;102152.44;10256695;28;20463;-87
2022/06/13 15:46:39;;;;;;;3.80;0.80;;;;;;;19.39;67.42;102144.25;10273819;28;20100;-85
2022/06/13 15:51:39;;;;;;;6.65;0.93;;;;;;;21.62;64.50;102129.25;10259621;28;20053;-86
2022/06/13 15:56:40;;;;;;;5.53;1.00;;;;;;;20.40;63.64;102135.66;10273623;28;20039;-88
2022/06/13 16:01:51;;;;;;;2.58;0.60;;;;;;;20.15;66.42;102147.84;10299368;28;20388;-91
2022/06/13 16:06:56;;;;;;;4.90;1.10;;;;;;;22.26;60.74;102119.47;10290019;28;20390;-88
2022/06/13 16:12:18;;;;;;;4.10;0.90;;;;;;;21.83;59.21;102127.88;10250600;28;20047;-88
2022/06/13 16:17:31;;;;;;;4.20;0.88;;;;;;;20.29;63.03;102140.50;10273937;28;20091;-87
2022/06/13 16:22:31;;;;;;;6.97;1.27;;;;;;;20.44;63.11;102125.56;10267460;28;20099;-88
2022/06/13 16:27:31;;;;;;;5.40;1.15;;;;;;;20.40;62.79;102101.28;10269811;28;20039;-89
2022/06/13 16:32:32;;;;;;;4.60;0.88;;;;;;;19.90;66.16;102155.25;10277969;28;20399;-88
2022/06/13 16:38:02;;;;;;;4.68;0.80;;;;;;;19.79;65.83;102163.97;10249006;28;20054;-88
2022/06/13 16:43:03;;;;;;;5.20;1.15;;;;;;;19.79;68.48;102167.59;10283203;28;20043;-89
2022/06/13 16:48:06;;;;;;;7.75;1.05;;;;;;;19.40;67.58;102173.00;10276784;28;20039;-89
2022/06/13 16:53:13;;;;;;;7.03;0.75;;;;;;;18.46;69.65;102171.31;10265708;28;20046;-92
2022/06/13 16:58:44;;;;;;;5.28;0.73;;;;;;;17.76;70.47;102176.34;10281826;28;20038;-91
2022/06/13 17:03:59;;;;;;;5.65;1.20;;;;;;;17.39;74.03;102191.19;10278838;28;20042;-89
2022/06/13 17:09:11;;;;;;;3.35;0.75;;;;;;;17.57;73.17;102175.13;10282531;28;20059;-87
2022/06/13 17:14:12;;;;;;;3.78;1.00;;;;;;;17.35;74.74;102198.38;10282542;28;20502;-90
2022/06/13 17:19:12;;;;;;;3.00;1.02;;;;;;;17.17;75.21;102188.50;10286424;28;20031;-90
2022/06/13 17:24:13;;;;;;;5.97;1.50;;;;;;;16.77;76.88;102183.44;10276016;28;20043;-90
2022/06/13 17:34:33;;;;;;;9.38;0.90;;;;;;;17.03;77.78;102192.84;10285441;28;20050;-89
2022/06/13 17:39:34;;;;;;;3.40;0.70;;;;;;;16.69;77.53;102205.03;10290054;28;20070;-91
2022/06/13 17:44:38;;;;;;;7.60;0.85;;;;;;;16.50;78.08;102196.22;10296354;28;20109;-90
2022/06/13 17:49:38;;;;;;;4.85;0.93;;;;;;;16.32;79.83;102191.88;10279032;28;20042;-91
2022/06/13 17:54:39;;;;;;;3.28;0.82;;;;;;;16.26;79.85;102212.34;10281551;28;20050;-91
2022/06/13 17:59:40;;;;;;;4.95;0.80;;;;;;;16.24;81.31;102213.72;10293287;28;20122;-91
2022/06/13 18:04:40;;;;;;;3.88;0.95;;;;;;;16.19;79.30;102189.50;10293722;28;20035;-90
2022/06/13 18:09:42;;;;;;;7.78;1.70;;;;;;;16.37;82.20;102223.59;10286835;28;20054;-90
2022/06/13 18:14:42;;;;;;;4.25;0.90;;;;;;;16.40;82.75;102225.88;10275248;28;20046;-91
2022/06/13 18:19:43;;;;;;;4.13;0.65;;;;;;;16.07;81.63;102231.31;10269241;28;20051;-90
2022/06/13 18:24:43;;;;;;;5.80;0.65;;;;;;;15.61;81.46;102229.81;10293304;28;20483;-91
2022/06/13 18:29:45;;;;;;;3.25;0.73;;;;;;;15.42;82.47;102241.19;10266571;28;20082;-91
2022/06/13 18:34:46;;;;;;;6.82;0.90;;;;;;;15.09;84.41;102240.09;10271509;28;20603;-90
2022/06/13 18:39:46;;;;;;;3.75;0.70;;;;;;;15.04;87.13;102251.09;10290966;28;20039;-91
2022/06/13 18:44:47;;;;;;;3.45;0.73;;;;;;;14.90;87.65;102249.72;10280847;28;20036;-89
2022/06/13 18:49:49;;;;;;;2.25;0.75;;;;;;;14.68;89.28;102233.00;10257683;28;20046;-90
2022/06/13 18:54:50;;;;;;;5.30;0.85;;;;;;;14.78;91.49;102246.19;10255207;28;20054;-90
2022/06/13 18:59:50;;;;;;;4.63;0.90;;;;;;;14.81;91.90;102242.94;10304454;28;20395;-91
2022/06/13 19:04:51;;;;;;;5.72;1.20;;;;;;;14.75;93.96;102257.78;10285766;28;20126;-91
2022/06/13 19:09:52;;;;;;;3.45;1.10;;;;;;;14.29;97.91;102219.75;10260622;28;20086;-91
2022/06/13 19:14:55;;;;;;;5.95;1.98;;;;;;;14.36;100.00;102268.63;10263138;28;20043;-91
2022/06/13 19:19:56;;;;;;;5.47;0.98;;;;;;;14.09;100.00;102253.41;10278746;28;20551;-91
2022/06/13 19:24:56;;;;;;;4.72;1.02;;;;;;;14.03;100.00;102272.91;10270729;28;20055;-91
2022/06/13 19:29:57;;;;;;;3.97;1.20;;;;;;;13.75;100.00;102246.84;10290822;28;20066;-90
2022/06/13 19:34:57;;;;;;;6.18;1.08;;;;;;;13.79;100.00;102277.63;10274850;28;20042;-89
2022/06/13 19:39:58;;;;;;;5.97;1.77;;;;;;;13.78;100.00;102287.03;10282169;28;20046;-91
2022/06/13 19:44:58;;;;;;;8.80;1.88;;;;;;;13.78;100.00;102282.34;10289374;28;20023;-90
2022/06/13 19:49:59;;;;;;;6.70;1.00;;;;;;;13.85;100.00;102282.19;10302295;28;20031;-89
2022/06/13 19:55:01;;;;;;;6.60;1.10;;;;;;;13.78;100.00;102295.34;10281022;28;20054;-92
2022/06/13 20:00:04;;;;;;;5.93;1.02;;;;;;;13.72;100.00;102300.78;10299849;28;20035;-92
2022/06/13 20:05:04;;;;;;;6.88;1.90;;;;;;;13.64;100.00;102309.44;10265627;28;20043;-90
2022/06/13 20:10:05;;;;;;;8.35;1.17;;;;;;;13.51;100.00;102299.41;10266692;28;20039;-91
2022/06/13 20:15:06;;;;;;;9.48;3.17;;;;;;;13.41;100.00;102293.63;10255195;28;20039;-89
2022/06/13 20:20:07;;;;;;;11.30;3.60;;;;;;;13.43;100.00;102321.91;10266549;28;20125;-91
2022/06/13 20:25:08;;;;;;;10.77;2.17;;;;;;;13.42;100.00;102317.47;10287610;28;20411;-91
2022/06/13 20:30:09;;;;;;;9.40;1.60;;;;;;;13.38;100.00;102315.41;10307978;28;20050;-91
2022/06/13 20:35:10;;;;;;;10.82;1.80;;;;;;;13.18;100.00;102288.03;10286253;28;20038;-90
2022/06/13 20:40:15;;;;;;;7.63;1.60;;;;;;;13.15;100.00;102300.41;10278907;28;20051;-80
2022/06/13 20:45:17;;;;;;;5.03;1.80;;;;;;;13.22;100.00;102317.75;10278515;28;20103;-91
2022/06/13 20:50:24;;;;;;;6.63;1.45;;;;;;;13.24;100.00;102311.97;10300610;28;20031;-91
2022/06/13 20:55:24;;;;;;;6.43;1.15;;;;;;;13.22;100.00;102308.59;10295347;28;20097;-91
2022/06/13 21:00:25;;;;;;;14.32;1.50;;;;;;;13.18;100.00;102310.16;10289714;28;20452;-92
2022/06/13 21:05:26;;;;;;;8.50;1.67;;;;;;;13.17;100.00;102308.47;10301679;28;20046;-91
2022/06/13 21:10:27;;;;;;;4.40;1.40;;;;;;;13.17;100.00;102319.53;10286873;28;20129;-91
2022/06/13 21:15:29;;;;;;;8.25;1.58;;;;;;;13.13;100.00;102322.78;10293176;28;20047;-91
2022/06/13 21:20:32;;;;;;;7.13;1.95;;;;;;;13.12;100.00;102314.72;10295177;28;20043;-92
2022/06/13 21:25:33;;;;;;;9.27;1.92;;;;;;;12.97;100.00;102292.19;10260095;28;20400;-90
2022/06/13 21:30:36;;;;;;;4.43;1.48;;;;;;;12.71;100.00;102248.16;10270081;28;20054;-91
2022/06/13 21:35:36;;;;;;;10.13;1.73;;;;;;;13.03;100.00;102308.69;10282933;28;20261;-91
2022/06/13 21:40:38;;;;;;;9.57;1.70;;;;;;;12.87;100.00;102299.13;10296915;28;20042;-91
2022/06/13 21:45:39;;;;;;;6.93;1.65;;;;;;;12.68;100.00;102300.25;10278662;28;20066;-90
2022/06/13 21:50:41;;;;;;;5.35;1.40;;;;;;;12.48;100.00;102303.28;10275054;28;20116;-90
2022/06/13 21:55:41;;;;;;;5.90;1.85;;;;;;;12.25;100.00;102298.47;10286144;28;20147;-91
2022/06/13 22:00:42;;;;;;;5.20;1.40;;;;;;;12.13;100.00;102303.91;10265655;28;20043;-89
2022/06/13 22:05:43;;;;;;;7.07;1.80;;;;;;;11.97;100.00;102305.38;10271704;28;20062;-90
2022/06/13 22:10:44;;;;;;;8.90;1.73;;;;;;;11.78;100.00;102301.72;10282448;28;20062;-91
2022/06/13 22:15:44;;;;;;;10.70;2.17;;;;;;;11.71;100.00;102320.25;10297746;28;20102;-90
2022/06/13 22:20:45;;;;;;;8.40;2.20;;;;;;;11.65;100.00;102315.63;10255986;28;20510;-90
2022/06/13 22:25:51;;;;;;;12.05;2.22;;;;;;;11.56;100.00;102301.28;10299762;28;20506;-77
2022/06/13 22:30:51;;;;;;;;;;;;;;;11.61;100.00;102322.66;10303967;28;20045;-89
2022/06/13 22:35:52;;;;;;;10.93;2.28;;;;;;;11.61;100.00;102329.03;10288814;28;19998;-90
2022/06/13 22:40:53;;;;;;;6.40;1.75;;;;;;;11.59;100.00;102336.69;10273657;28;20267;-89
2022/06/13 22:45:53;;;;;;;7.88;2.00;;;;;;;11.47;100.00;102328.31;10299064;28;20098;-89
2022/06/13 22:50:55;;;;;;;7.15;2.10;;;;;;;11.45;100.00;102346.13;10270723;28;20039;-89
2022/06/13 22:55:55;;;;;;;11.57;2.42;;;;;;;11.32;100.00;102323.09;10273239;28;20039;-90
2022/06/13 23:00:56;;;;;;;9.93;2.70;;;;;;;11.25;100.00;102315.97;10258621;28;20100;-82
2022/06/13 23:05:56;;;;;;;9.27;2.40;;;;;;;11.16;100.00;102309.03;10273736;28;20062;-89
2022/06/13 23:10:57;;;;;;;12.07;3.95;;;;;;;11.02;100.00;102316.56;10268523;28;20049;-89
2022/06/13 23:15:57;;;;;;;11.45;3.15;;;;;;;10.83;100.00;102288.03;10298631;28;20065;-89
2022/06/13 23:20:57;;;;;;;9.70;2.65;;;;;;;10.77;100.00;102288.94;10299346;28;20515;-89
2022/06/13 23:25:58;;;;;;;15.45;3.95;;;;;;;10.81;100.00;102296.56;10298333;28;20445;-89
2022/06/13 23:30:58;;;;;;;10.18;3.13;;;;;;;10.71;100.00;102301.69;10301406;28;20403;-89
2022/06/13 23:35:59;;;;;;;13.07;3.17;;;;;;;10.61;100.00;102296.66;10301515;28;20042;-89
2022/06/13 23:40:59;;;;;;;12.75;3.30;;;;;;;10.43;100.00;102289.09;10301828;28;20086;-88
2022/06/13 23:46:00;;;;;;;12.05;3.30;;;;;;;10.49;100.00;102314.94;10304462;28;20031;-80
2022/06/13 23:51:00;;;;;;;15.23;3.50;;;;;;;10.43;100.00;102327.66;10302057;28;20471;-83